sensor_id;sensor_type;location;lat;lon;timestamp;P1;durP1;ratioP1;P2;durP2;ratioP2
1428;SDS011;708;51.442;7.016;2024-03-29T00:01:48;5.55;;;5.35;;
1428;SDS011;708;51.442;7.016;2024-03-29T00:04:14;5.43;;;5.23;;
1428;SDS011;708;51.442;7.016;2024-03-29T00:06:40;5.57;;;5.37;;
1428;SDS011;708;51.442;7.016;2024-03-29T00:09:06;5.27;;;5.07;;
1428;SDS011;708;51.442;7.016;2024-03-29T00:11:32;5.13;;;4.93;;
1428;SDS011;708;51.442;7.016;2024-03-29T00:13:57;5.67;;;5.07;;
1428;SDS011;708;51.442;7.016;2024-03-29T00:16:25;4.87;;;4.67;;
1428;SDS011;708;51.442;7.016;2024-03-29T00:18:50;4.57;;;4.38;;
1428;SDS011;708;51.442;7.016;2024-03-29T00:21:17;5.00;;;4.80;;
1428;SDS011;708;51.442;7.016;2024-03-29T00:23:43;5.57;;;5.38;;
1428;SDS011;708;51.442;7.016;2024-03-29T00:26:10;5.55;;;5.35;;
1428;SDS011;708;51.442;7.016;2024-03-29T00:28:36;5.60;;;5.40;;
1428;SDS011;708;51.442;7.016;2024-03-29T00:31:02;4.82;;;4.63;;
1428;SDS011;708;51.442;7.016;2024-03-29T00:33:29;5.43;;;5.22;;
1428;SDS011;708;51.442;7.016;2024-03-29T00:35:55;6.28;;;6.07;;
1428;SDS011;708;51.442;7.016;2024-03-29T00:38:21;5.90;;;5.70;;
1428;SDS011;708;51.442;7.016;2024-03-29T00:40:47;6.00;;;5.80;;
1428;SDS011;708;51.442;7.016;2024-03-29T00:43:13;6.03;;;5.83;;
1428;SDS011;708;51.442;7.016;2024-03-29T00:45:39;6.37;;;6.17;;
1428;SDS011;708;51.442;7.016;2024-03-29T00:48:05;6.05;;;5.85;;
1428;SDS011;708;51.442;7.016;2024-03-29T00:50:33;7.72;;;7.43;;
1428;SDS011;708;51.442;7.016;2024-03-29T00:52:59;6.05;;;5.85;;
1428;SDS011;708;51.442;7.016;2024-03-29T00:55:25;6.60;;;6.33;;
1428;SDS011;708;51.442;7.016;2024-03-29T00:57:51;5.40;;;5.20;;
1428;SDS011;708;51.442;7.016;2024-03-29T01:00:17;4.57;;;4.37;;
1428;SDS011;708;51.442;7.016;2024-03-29T01:02:43;3.83;;;3.63;;
1428;SDS011;708;51.442;7.016;2024-03-29T01:05:09;4.30;;;4.10;;
1428;SDS011;708;51.442;7.016;2024-03-29T01:07:36;4.35;;;4.15;;
1428;SDS011;708;51.442;7.016;2024-03-29T01:10:05;4.75;;;4.55;;
1428;SDS011;708;51.442;7.016;2024-03-29T01:12:31;4.35;;;4.15;;
1428;SDS011;708;51.442;7.016;2024-03-29T01:14:57;4.30;;;4.10;;
1428;SDS011;708;51.442;7.016;2024-03-29T01:17:23;4.70;;;4.50;;
1428;SDS011;708;51.442;7.016;2024-03-29T01:19:49;4.13;;;3.93;;
1428;SDS011;708;51.442;7.016;2024-03-29T01:22:14;3.97;;;3.77;;
1428;SDS011;708;51.442;7.016;2024-03-29T01:24:41;5.00;;;4.80;;
1428;SDS011;708;51.442;7.016;2024-03-29T01:27:07;4.60;;;4.40;;
1428;SDS011;708;51.442;7.016;2024-03-29T01:29:33;4.30;;;4.10;;
1428;SDS011;708;51.442;7.016;2024-03-29T01:31:59;4.23;;;4.03;;
1428;SDS011;708;51.442;7.016;2024-03-29T01:34:25;4.67;;;4.47;;
1428;SDS011;708;51.442;7.016;2024-03-29T01:36:51;4.60;;;4.40;;
1428;SDS011;708;51.442;7.016;2024-03-29T01:39:17;4.13;;;3.93;;
1428;SDS011;708;51.442;7.016;2024-03-29T01:41:44;4.80;;;4.50;;
1428;SDS011;708;51.442;7.016;2024-03-29T01:44:09;4.35;;;4.15;;
1428;SDS011;708;51.442;7.016;2024-03-29T01:46:36;4.40;;;4.20;;
1428;SDS011;708;51.442;7.016;2024-03-29T01:49:03;8.52;;;5.20;;
1428;SDS011;708;51.442;7.016;2024-03-29T01:51:31;4.53;;;4.32;;
1428;SDS011;708;51.442;7.016;2024-03-29T01:53:58;3.85;;;3.65;;
1428;SDS011;708;51.442;7.016;2024-03-29T01:56:25;4.70;;;4.50;;
1428;SDS011;708;51.442;7.016;2024-03-29T01:58:55;4.18;;;3.97;;
1428;SDS011;708;51.442;7.016;2024-03-29T02:01:24;3.75;;;3.55;;
1428;SDS011;708;51.442;7.016;2024-03-29T02:03:52;4.40;;;4.20;;
1428;SDS011;708;51.442;7.016;2024-03-29T02:06:20;4.28;;;4.07;;
1428;SDS011;708;51.442;7.016;2024-03-29T02:08:47;3.88;;;3.67;;
1428;SDS011;708;51.442;7.016;2024-03-29T02:11:17;3.92;;;3.72;;
1428;SDS011;708;51.442;7.016;2024-03-29T02:13:44;3.80;;;3.60;;
1428;SDS011;708;51.442;7.016;2024-03-29T02:16:13;3.92;;;3.72;;
1428;SDS011;708;51.442;7.016;2024-03-29T02:18:40;3.55;;;3.35;;
1428;SDS011;708;51.442;7.016;2024-03-29T02:21:06;4.10;;;3.90;;
1428;SDS011;708;51.442;7.016;2024-03-29T02:23:36;4.15;;;3.95;;
1428;SDS011;708;51.442;7.016;2024-03-29T02:26:07;3.15;;;3.05;;
1428;SDS011;708;51.442;7.016;2024-03-29T02:28:33;3.55;;;3.35;;
1428;SDS011;708;51.442;7.016;2024-03-29T02:30:59;5.30;;;5.00;;
1428;SDS011;708;51.442;7.016;2024-03-29T02:33:26;3.65;;;3.45;;
1428;SDS011;708;51.442;7.016;2024-03-29T02:35:53;7.75;;;4.10;;
1428;SDS011;708;51.442;7.016;2024-03-29T02:38:19;4.10;;;3.90;;
1428;SDS011;708;51.442;7.016;2024-03-29T02:40:46;3.85;;;3.65;;
1428;SDS011;708;51.442;7.016;2024-03-29T02:43:14;4.10;;;3.90;;
1428;SDS011;708;51.442;7.016;2024-03-29T02:45:40;4.68;;;4.47;;
1428;SDS011;708;51.442;7.016;2024-03-29T02:48:07;4.38;;;4.18;;
1428;SDS011;708;51.442;7.016;2024-03-29T02:50:34;4.68;;;4.47;;
1428;SDS011;708;51.442;7.016;2024-03-29T02:52:59;4.60;;;4.40;;
1428;SDS011;708;51.442;7.016;2024-03-29T02:55:26;4.50;;;4.30;;
1428;SDS011;708;51.442;7.016;2024-03-29T02:57:52;4.70;;;4.50;;
1428;SDS011;708;51.442;7.016;2024-03-29T03:00:20;4.75;;;4.55;;
1428;SDS011;708;51.442;7.016;2024-03-29T03:02:46;4.82;;;4.63;;
1428;SDS011;708;51.442;7.016;2024-03-29T03:05:12;5.00;;;4.80;;
1428;SDS011;708;51.442;7.016;2024-03-29T03:07:39;5.00;;;4.80;;
1428;SDS011;708;51.442;7.016;2024-03-29T03:10:23;5.20;;;5.00;;
1428;SDS011;708;51.442;7.016;2024-03-29T03:13:07;4.82;;;4.63;;
1428;SDS011;708;51.442;7.016;2024-03-29T03:15:35;4.57;;;4.38;;
1428;SDS011;708;51.442;7.016;2024-03-29T03:18:02;4.47;;;4.28;;
1428;SDS011;708;51.442;7.016;2024-03-29T03:20:27;4.20;;;4.00;;
1428;SDS011;708;51.442;7.016;2024-03-29T03:22:56;4.45;;;4.25;;
1428;SDS011;708;51.442;7.016;2024-03-29T03:25:22;4.43;;;4.23;;
1428;SDS011;708;51.442;7.016;2024-03-29T03:27:51;4.85;;;4.65;;
1428;SDS011;708;51.442;7.016;2024-03-29T03:30:16;5.43;;;5.23;;
1428;SDS011;708;51.442;7.016;2024-03-29T03:32:44;4.90;;;4.70;;
1428;SDS011;708;51.442;7.016;2024-03-29T03:35:10;4.43;;;4.22;;
1428;SDS011;708;51.442;7.016;2024-03-29T03:37:37;5.60;;;5.40;;
1428;SDS011;708;51.442;7.016;2024-03-29T03:40:03;5.30;;;5.10;;
1428;SDS011;708;51.442;7.016;2024-03-29T03:42:31;4.78;;;4.57;;
1428;SDS011;708;51.442;7.016;2024-03-29T03:44:57;4.77;;;4.57;;
1428;SDS011;708;51.442;7.016;2024-03-29T03:47:24;5.35;;;4.95;;
1428;SDS011;708;51.442;7.016;2024-03-29T03:49:51;4.53;;;4.33;;
1428;SDS011;708;51.442;7.016;2024-03-29T03:52:17;4.05;;;3.85;;
1428;SDS011;708;51.442;7.016;2024-03-29T03:54:43;4.77;;;4.57;;
1428;SDS011;708;51.442;7.016;2024-03-29T03:57:10;4.97;;;4.78;;
1428;SDS011;708;51.442;7.016;2024-03-29T03:59:36;4.53;;;4.33;;
1428;SDS011;708;51.442;7.016;2024-03-29T04:02:02;4.63;;;4.43;;
1428;SDS011;708;51.442;7.016;2024-03-29T04:04:28;4.43;;;4.22;;
1428;SDS011;708;51.442;7.016;2024-03-29T04:06:56;4.00;;;3.80;;
1428;SDS011;708;51.442;7.016;2024-03-29T04:09:22;4.80;;;4.60;;
1428;SDS011;708;51.442;7.016;2024-03-29T04:11:49;4.28;;;4.07;;
1428;SDS011;708;51.442;7.016;2024-03-29T04:14:15;4.83;;;4.63;;
1428;SDS011;708;51.442;7.016;2024-03-29T04:16:41;4.88;;;4.68;;
1428;SDS011;708;51.442;7.016;2024-03-29T04:19:07;5.07;;;4.87;;
1428;SDS011;708;51.442;7.016;2024-03-29T04:21:34;5.63;;;5.43;;
1428;SDS011;708;51.442;7.016;2024-03-29T04:24:01;5.37;;;5.17;;
1428;SDS011;708;51.442;7.016;2024-03-29T04:26:28;4.78;;;4.57;;
1428;SDS011;708;51.442;7.016;2024-03-29T04:28:53;5.90;;;5.30;;
1428;SDS011;708;51.442;7.016;2024-03-29T04:31:20;5.65;;;5.38;;
1428;SDS011;708;51.442;7.016;2024-03-29T04:33:46;5.20;;;5.00;;
1428;SDS011;708;51.442;7.016;2024-03-29T04:36:12;5.43;;;5.22;;
1428;SDS011;708;51.442;7.016;2024-03-29T04:38:38;5.77;;;5.57;;
1428;SDS011;708;51.442;7.016;2024-03-29T04:41:06;7.63;;;7.22;;
1428;SDS011;708;51.442;7.016;2024-03-29T04:43:33;5.35;;;5.15;;
1428;SDS011;708;51.442;7.016;2024-03-29T04:46:03;5.55;;;5.35;;
1428;SDS011;708;51.442;7.016;2024-03-29T04:48:30;5.20;;;5.00;;
1428;SDS011;708;51.442;7.016;2024-03-29T04:50:57;5.82;;;5.63;;
1428;SDS011;708;51.442;7.016;2024-03-29T04:53:24;5.53;;;5.32;;
1428;SDS011;708;51.442;7.016;2024-03-29T04:55:53;6.30;;;6.10;;
1428;SDS011;708;51.442;7.016;2024-03-29T04:58:21;5.80;;;5.60;;
1428;SDS011;708;51.442;7.016;2024-03-29T05:00:48;5.72;;;5.53;;
1428;SDS011;708;51.442;7.016;2024-03-29T05:03:16;6.38;;;6.07;;
1428;SDS011;708;51.442;7.016;2024-03-29T05:05:43;6.68;;;6.47;;
1428;SDS011;708;51.442;7.016;2024-03-29T05:08:10;6.45;;;6.25;;
1428;SDS011;708;51.442;7.016;2024-03-29T05:10:36;5.78;;;5.57;;
1428;SDS011;708;51.442;7.016;2024-03-29T05:13:03;6.00;;;5.80;;
1428;SDS011;708;51.442;7.016;2024-03-29T05:15:32;5.63;;;5.43;;
1428;SDS011;708;51.442;7.016;2024-03-29T05:17:58;5.90;;;5.70;;
1428;SDS011;708;51.442;7.016;2024-03-29T05:20:25;6.53;;;6.32;;
1428;SDS011;708;51.442;7.016;2024-03-29T05:22:52;5.97;;;5.78;;
1428;SDS011;708;51.442;7.016;2024-03-29T05:25:18;6.32;;;6.13;;
1428;SDS011;708;51.442;7.016;2024-03-29T05:27:45;6.72;;;6.43;;
1428;SDS011;708;51.442;7.016;2024-03-29T05:30:12;6.30;;;6.10;;
1428;SDS011;708;51.442;7.016;2024-03-29T05:32:40;6.50;;;6.30;;
1428;SDS011;708;51.442;7.016;2024-03-29T05:35:07;6.93;;;6.63;;
1428;SDS011;708;51.442;7.016;2024-03-29T05:37:35;6.75;;;6.53;;
1428;SDS011;708;51.442;7.016;2024-03-29T05:40:02;6.28;;;6.07;;
1428;SDS011;708;51.442;7.016;2024-03-29T05:42:32;5.95;;;5.75;;
1428;SDS011;708;51.442;7.016;2024-03-29T05:44:59;5.95;;;5.75;;
1428;SDS011;708;51.442;7.016;2024-03-29T05:47:26;6.20;;;6.00;;
1428;SDS011;708;51.442;7.016;2024-03-29T05:49:54;6.90;;;6.60;;
1428;SDS011;708;51.442;7.016;2024-03-29T05:52:21;6.93;;;6.65;;
1428;SDS011;708;51.442;7.016;2024-03-29T05:54:48;7.00;;;6.68;;
1428;SDS011;708;51.442;7.016;2024-03-29T05:57:15;5.88;;;5.68;;
1428;SDS011;708;51.442;7.016;2024-03-29T05:59:42;6.72;;;6.43;;
1428;SDS011;708;51.442;7.016;2024-03-29T06:02:08;6.70;;;6.50;;
1428;SDS011;708;51.442;7.016;2024-03-29T06:04:35;6.75;;;6.55;;
1428;SDS011;708;51.442;7.016;2024-03-29T06:07:04;7.20;;;6.90;;
1428;SDS011;708;51.442;7.016;2024-03-29T06:09:33;6.28;;;6.07;;
1428;SDS011;708;51.442;7.016;2024-03-29T06:12:00;6.45;;;6.25;;
1428;SDS011;708;51.442;7.016;2024-03-29T06:14:27;8.25;;;7.95;;
1428;SDS011;708;51.442;7.016;2024-03-29T06:17:11;7.25;;;6.95;;
1428;SDS011;708;51.442;7.016;2024-03-29T06:19:49;7.43;;;7.13;;
1428;SDS011;708;51.442;7.016;2024-03-29T06:22:18;7.22;;;6.90;;
1428;SDS011;708;51.442;7.016;2024-03-29T06:24:44;7.30;;;7.00;;
1428;SDS011;708;51.442;7.016;2024-03-29T06:27:12;6.97;;;6.70;;
1428;SDS011;708;51.442;7.016;2024-03-29T06:29:41;7.20;;;6.70;;
1428;SDS011;708;51.442;7.016;2024-03-29T06:32:08;6.00;;;5.80;;
1428;SDS011;708;51.442;7.016;2024-03-29T06:34:34;7.13;;;6.82;;
1428;SDS011;708;51.442;7.016;2024-03-29T06:37:01;7.68;;;7.38;;
1428;SDS011;708;51.442;7.016;2024-03-29T06:39:29;7.63;;;7.32;;
1428;SDS011;708;51.442;7.016;2024-03-29T06:41:56;6.75;;;6.55;;
1428;SDS011;708;51.442;7.016;2024-03-29T06:44:23;7.80;;;7.50;;
1428;SDS011;708;51.442;7.016;2024-03-29T06:46:50;7.55;;;7.25;;
1428;SDS011;708;51.442;7.016;2024-03-29T06:49:17;7.25;;;6.95;;
1428;SDS011;708;51.442;7.016;2024-03-29T06:51:43;6.93;;;6.68;;
1428;SDS011;708;51.442;7.016;2024-03-29T06:54:10;7.00;;;6.70;;
1428;SDS011;708;51.442;7.016;2024-03-29T06:56:38;6.97;;;6.70;;
1428;SDS011;708;51.442;7.016;2024-03-29T06:59:05;7.18;;;6.88;;
1428;SDS011;708;51.442;7.016;2024-03-29T07:01:33;6.43;;;6.22;;
1428;SDS011;708;51.442;7.016;2024-03-29T07:04:01;8.10;;;7.80;;
1428;SDS011;708;51.442;7.016;2024-03-29T07:06:28;8.10;;;7.80;;
1428;SDS011;708;51.442;7.016;2024-03-29T07:08:54;6.15;;;5.95;;
1428;SDS011;708;51.442;7.016;2024-03-29T07:11:21;5.97;;;5.78;;
1428;SDS011;708;51.442;7.016;2024-03-29T07:13:49;6.30;;;6.10;;
1428;SDS011;708;51.442;7.016;2024-03-29T07:16:16;6.15;;;5.95;;
1428;SDS011;708;51.442;7.016;2024-03-29T07:18:42;5.90;;;5.70;;
1428;SDS011;708;51.442;7.016;2024-03-29T07:21:09;6.38;;;6.07;;
1428;SDS011;708;51.442;7.016;2024-03-29T07:23:36;8.20;;;7.63;;
1428;SDS011;708;51.442;7.016;2024-03-29T07:26:03;6.40;;;6.20;;
1428;SDS011;708;51.442;7.016;2024-03-29T07:28:31;5.85;;;5.65;;
1428;SDS011;708;51.442;7.016;2024-03-29T07:31:04;5.32;;;5.13;;
1428;SDS011;708;51.442;7.016;2024-03-29T07:33:32;6.10;;;5.90;;
1428;SDS011;708;51.442;7.016;2024-03-29T07:35:59;6.80;;;6.53;;
1428;SDS011;708;51.442;7.016;2024-03-29T07:38:26;5.57;;;5.38;;
1428;SDS011;708;51.442;7.016;2024-03-29T07:40:52;5.80;;;5.60;;
1428;SDS011;708;51.442;7.016;2024-03-29T07:43:20;5.00;;;4.80;;
1428;SDS011;708;51.442;7.016;2024-03-29T07:45:47;4.53;;;4.32;;
1428;SDS011;708;51.442;7.016;2024-03-29T07:48:18;5.53;;;5.32;;
1428;SDS011;708;51.442;7.016;2024-03-29T07:50:45;4.82;;;4.63;;
1428;SDS011;708;51.442;7.016;2024-03-29T07:53:12;5.53;;;5.32;;
1428;SDS011;708;51.442;7.016;2024-03-29T07:55:39;6.38;;;6.18;;
1428;SDS011;708;51.442;7.016;2024-03-29T07:58:07;6.07;;;5.88;;
1428;SDS011;708;51.442;7.016;2024-03-29T08:00:35;6.30;;;6.10;;
1428;SDS011;708;51.442;7.016;2024-03-29T08:03:05;7.07;;;6.78;;
1428;SDS011;708;51.442;7.016;2024-03-29T08:05:34;5.65;;;5.45;;
1428;SDS011;708;51.442;7.016;2024-03-29T08:08:01;6.43;;;6.13;;
1428;SDS011;708;51.442;7.016;2024-03-29T08:10:28;6.57;;;6.38;;
1428;SDS011;708;51.442;7.016;2024-03-29T08:12:56;6.32;;;6.13;;
1428;SDS011;708;51.442;7.016;2024-03-29T08:15:23;6.82;;;6.53;;
1428;SDS011;708;51.442;7.016;2024-03-29T08:17:53;6.00;;;5.80;;
1428;SDS011;708;51.442;7.016;2024-03-29T08:20:19;6.05;;;5.85;;
1428;SDS011;708;51.442;7.016;2024-03-29T08:22:55;8.52;;;8.23;;
1428;SDS011;708;51.442;7.016;2024-03-29T08:25:24;5.50;;;5.30;;
1428;SDS011;708;51.442;7.016;2024-03-29T08:27:52;5.95;;;5.75;;
1428;SDS011;708;51.442;7.016;2024-03-29T08:30:23;5.43;;;5.22;;
1428;SDS011;708;51.442;7.016;2024-03-29T08:32:50;5.03;;;4.82;;
1428;SDS011;708;51.442;7.016;2024-03-29T08:35:18;5.30;;;5.10;;
1428;SDS011;708;51.442;7.016;2024-03-29T08:37:45;5.25;;;5.05;;
1428;SDS011;708;51.442;7.016;2024-03-29T08:40:13;5.72;;;5.53;;
1428;SDS011;708;51.442;7.016;2024-03-29T08:42:40;6.05;;;5.85;;
1428;SDS011;708;51.442;7.016;2024-03-29T08:45:07;5.03;;;4.82;;
1428;SDS011;708;51.442;7.016;2024-03-29T08:47:35;5.55;;;5.35;;
1428;SDS011;708;51.442;7.016;2024-03-29T08:50:04;5.90;;;5.70;;
1428;SDS011;708;51.442;7.016;2024-03-29T08:52:31;5.43;;;5.22;;
1428;SDS011;708;51.442;7.016;2024-03-29T08:54:57;5.22;;;5.03;;
1428;SDS011;708;51.442;7.016;2024-03-29T08:57:25;5.95;;;5.75;;
1428;SDS011;708;51.442;7.016;2024-03-29T08:59:52;4.97;;;4.78;;
1428;SDS011;708;51.442;7.016;2024-03-29T09:02:19;4.85;;;4.65;;
1428;SDS011;708;51.442;7.016;2024-03-29T09:04:46;4.70;;;4.50;;
1428;SDS011;708;51.442;7.016;2024-03-29T09:07:12;7.07;;;6.68;;
1428;SDS011;708;51.442;7.016;2024-03-29T09:09:40;5.60;;;5.40;;
1428;SDS011;708;51.442;7.016;2024-03-29T09:12:07;6.35;;;6.15;;
1428;SDS011;708;51.442;7.016;2024-03-29T09:14:35;5.13;;;4.93;;
1428;SDS011;708;51.442;7.016;2024-03-29T09:17:02;6.38;;;6.18;;
1428;SDS011;708;51.442;7.016;2024-03-29T09:19:32;6.32;;;6.13;;
1428;SDS011;708;51.442;7.016;2024-03-29T09:21:58;5.10;;;4.90;;
1428;SDS011;708;51.442;7.016;2024-03-29T09:24:25;5.75;;;5.55;;
1428;SDS011;708;51.442;7.016;2024-03-29T09:26:52;5.60;;;5.40;;
1428;SDS011;708;51.442;7.016;2024-03-29T09:29:19;5.55;;;5.35;;
1428;SDS011;708;51.442;7.016;2024-03-29T09:31:47;5.50;;;5.30;;
1428;SDS011;708;51.442;7.016;2024-03-29T09:34:17;4.97;;;4.78;;
1428;SDS011;708;51.442;7.016;2024-03-29T09:36:44;5.05;;;4.85;;
1428;SDS011;708;51.442;7.016;2024-03-29T09:39:11;4.93;;;4.72;;
1428;SDS011;708;51.442;7.016;2024-03-29T09:41:37;6.05;;;5.85;;
1428;SDS011;708;51.442;7.016;2024-03-29T09:44:07;6.18;;;5.88;;
1428;SDS011;708;51.442;7.016;2024-03-29T09:46:36;6.43;;;6.22;;
1428;SDS011;708;51.442;7.016;2024-03-29T09:49:06;5.93;;;5.72;;
1428;SDS011;708;51.442;7.016;2024-03-29T09:51:33;6.50;;;6.30;;
1428;SDS011;708;51.442;7.016;2024-03-29T09:54:00;5.25;;;5.05;;
1428;SDS011;708;51.442;7.016;2024-03-29T09:56:29;5.30;;;5.10;;
1428;SDS011;708;51.442;7.016;2024-03-29T09:58:56;5.50;;;5.30;;
1428;SDS011;708;51.442;7.016;2024-03-29T10:01:23;5.72;;;5.53;;
1428;SDS011;708;51.442;7.016;2024-03-29T10:03:50;5.20;;;5.00;;
1428;SDS011;708;51.442;7.016;2024-03-29T10:06:20;5.28;;;5.07;;
1428;SDS011;708;51.442;7.016;2024-03-29T10:08:49;5.70;;;5.50;;
1428;SDS011;708;51.442;7.016;2024-03-29T10:11:19;6.00;;;5.80;;
1428;SDS011;708;51.442;7.016;2024-03-29T10:13:46;5.75;;;5.55;;
1428;SDS011;708;51.442;7.016;2024-03-29T10:16:13;5.40;;;5.20;;
1428;SDS011;708;51.442;7.016;2024-03-29T10:18:43;4.35;;;4.15;;
1428;SDS011;708;51.442;7.016;2024-03-29T10:21:10;5.43;;;5.22;;
1428;SDS011;708;51.442;7.016;2024-03-29T10:23:38;5.28;;;5.07;;
1428;SDS011;708;51.442;7.016;2024-03-29T10:26:06;5.15;;;4.95;;
1428;SDS011;708;51.442;7.016;2024-03-29T10:28:33;5.97;;;5.78;;
1428;SDS011;708;51.442;7.016;2024-03-29T10:31:02;4.95;;;4.75;;
1428;SDS011;708;51.442;7.016;2024-03-29T10:33:30;4.68;;;4.47;;
1428;SDS011;708;51.442;7.016;2024-03-29T10:35:58;4.80;;;4.60;;
1428;SDS011;708;51.442;7.016;2024-03-29T10:38:29;4.50;;;4.30;;
1428;SDS011;708;51.442;7.016;2024-03-29T10:40:57;4.95;;;4.75;;
1428;SDS011;708;51.442;7.016;2024-03-29T10:43:26;5.13;;;4.93;;
1428;SDS011;708;51.442;7.016;2024-03-29T10:45:53;5.30;;;5.10;;
1428;SDS011;708;51.442;7.016;2024-03-29T10:48:24;5.18;;;4.97;;
1428;SDS011;708;51.442;7.016;2024-03-29T10:50:53;5.07;;;4.88;;
1428;SDS011;708;51.442;7.016;2024-03-29T10:53:20;6.00;;;5.80;;
1428;SDS011;708;51.442;7.016;2024-03-29T10:55:50;4.80;;;4.60;;
1428;SDS011;708;51.442;7.016;2024-03-29T10:58:21;5.55;;;5.35;;
1428;SDS011;708;51.442;7.016;2024-03-29T11:00:52;5.00;;;4.80;;
1428;SDS011;708;51.442;7.016;2024-03-29T11:03:24;7.00;;;6.70;;
1428;SDS011;708;51.442;7.016;2024-03-29T11:05:59;5.65;;;5.45;;
1428;SDS011;708;51.442;7.016;2024-03-29T11:08:31;6.35;;;6.15;;
1428;SDS011;708;51.442;7.016;2024-03-29T11:11:00;6.80;;;6.50;;
1428;SDS011;708;51.442;7.016;2024-03-29T11:13:31;6.95;;;6.68;;
1428;SDS011;708;51.442;7.016;2024-03-29T11:16:03;4.60;;;4.40;;
1428;SDS011;708;51.442;7.016;2024-03-29T11:18:30;5.13;;;4.93;;
1428;SDS011;708;51.442;7.016;2024-03-29T11:20:58;5.78;;;5.57;;
1428;SDS011;708;51.442;7.016;2024-03-29T11:23:27;5.15;;;4.95;;
1428;SDS011;708;51.442;7.016;2024-03-29T11:25:54;5.60;;;5.40;;
1428;SDS011;708;51.442;7.016;2024-03-29T11:28:23;5.20;;;5.00;;
1428;SDS011;708;51.442;7.016;2024-03-29T11:30:53;4.45;;;4.25;;
1428;SDS011;708;51.442;7.016;2024-03-29T11:33:29;5.20;;;5.00;;
1428;SDS011;708;51.442;7.016;2024-03-29T11:35:57;4.80;;;4.60;;
1428;SDS011;708;51.442;7.016;2024-03-29T11:38:31;4.70;;;4.50;;
1428;SDS011;708;51.442;7.016;2024-03-29T11:41:03;5.03;;;4.83;;
1428;SDS011;708;51.442;7.016;2024-03-29T11:43:31;4.20;;;4.00;;
1428;SDS011;708;51.442;7.016;2024-03-29T11:45:59;4.85;;;4.65;;
1428;SDS011;708;51.442;7.016;2024-03-29T11:48:28;4.73;;;4.53;;
1428;SDS011;708;51.442;7.016;2024-03-29T11:50:56;5.10;;;4.90;;
1428;SDS011;708;51.442;7.016;2024-03-29T11:53:23;4.60;;;4.40;;
1428;SDS011;708;51.442;7.016;2024-03-29T11:55:50;4.65;;;4.45;;
1428;SDS011;708;51.442;7.016;2024-03-29T11:58:19;5.00;;;4.80;;
1428;SDS011;708;51.442;7.016;2024-03-29T12:00:47;4.43;;;4.22;;
1428;SDS011;708;51.442;7.016;2024-03-29T12:03:16;5.60;;;5.40;;
1428;SDS011;708;51.442;7.016;2024-03-29T12:05:45;4.32;;;4.13;;
1428;SDS011;708;51.442;7.016;2024-03-29T12:08:13;4.30;;;4.10;;
1428;SDS011;708;51.442;7.016;2024-03-29T12:10:40;4.88;;;4.68;;
1428;SDS011;708;51.442;7.016;2024-03-29T12:13:07;4.75;;;4.55;;
1428;SDS011;708;51.442;7.016;2024-03-29T12:15:34;5.00;;;4.80;;
1428;SDS011;708;51.442;7.016;2024-03-29T12:18:01;4.30;;;4.10;;
1428;SDS011;708;51.442;7.016;2024-03-29T12:20:31;5.13;;;4.93;;
1428;SDS011;708;51.442;7.016;2024-03-29T12:22:59;3.90;;;3.70;;
1428;SDS011;708;51.442;7.016;2024-03-29T12:25:27;5.20;;;4.90;;
1428;SDS011;708;51.442;7.016;2024-03-29T12:27:54;4.28;;;4.07;;
1428;SDS011;708;51.442;7.016;2024-03-29T12:30:21;4.28;;;4.07;;
1428;SDS011;708;51.442;7.016;2024-03-29T12:32:48;3.60;;;3.40;;
1428;SDS011;708;51.442;7.016;2024-03-29T12:35:26;3.30;;;3.10;;
1428;SDS011;708;51.442;7.016;2024-03-29T12:37:55;3.42;;;3.22;;
1428;SDS011;708;51.442;7.016;2024-03-29T12:40:25;3.10;;;2.90;;
1428;SDS011;708;51.442;7.016;2024-03-29T12:42:55;3.55;;;3.35;;
1428;SDS011;708;51.442;7.016;2024-03-29T12:45:22;3.60;;;3.40;;
1428;SDS011;708;51.442;7.016;2024-03-29T12:47:50;3.88;;;3.67;;
1428;SDS011;708;51.442;7.016;2024-03-29T12:50:19;3.10;;;3.00;;
1428;SDS011;708;51.442;7.016;2024-03-29T12:52:53;3.90;;;3.70;;
1428;SDS011;708;51.442;7.016;2024-03-29T12:55:23;3.47;;;3.28;;
1428;SDS011;708;51.442;7.016;2024-03-29T12:57:53;4.13;;;3.92;;
1428;SDS011;708;51.442;7.016;2024-03-29T13:00:20;3.78;;;3.58;;
1428;SDS011;708;51.442;7.016;2024-03-29T13:02:47;4.10;;;3.90;;
1428;SDS011;708;51.442;7.016;2024-03-29T13:05:13;4.03;;;3.83;;
1428;SDS011;708;51.442;7.016;2024-03-29T13:07:40;4.25;;;4.05;;
1428;SDS011;708;51.442;7.016;2024-03-29T13:10:09;4.07;;;3.88;;
1428;SDS011;708;51.442;7.016;2024-03-29T13:12:38;4.15;;;3.95;;
1428;SDS011;708;51.442;7.016;2024-03-29T13:15:14;4.57;;;4.38;;
1428;SDS011;708;51.442;7.016;2024-03-29T13:17:42;4.50;;;4.30;;
1428;SDS011;708;51.442;7.016;2024-03-29T13:20:11;4.32;;;4.13;;
1428;SDS011;708;51.442;7.016;2024-03-29T13:22:38;4.13;;;3.92;;
1428;SDS011;708;51.442;7.016;2024-03-29T13:25:08;4.32;;;4.13;;
1428;SDS011;708;51.442;7.016;2024-03-29T13:27:35;4.47;;;4.28;;
1428;SDS011;708;51.442;7.016;2024-03-29T13:30:03;5.13;;;4.93;;
1428;SDS011;708;51.442;7.016;2024-03-29T13:32:30;5.45;;;5.25;;
1428;SDS011;708;51.442;7.016;2024-03-29T13:34:58;5.10;;;4.90;;
1428;SDS011;708;51.442;7.016;2024-03-29T13:37:25;5.00;;;4.80;;
1428;SDS011;708;51.442;7.016;2024-03-29T13:39:52;4.53;;;4.33;;
1428;SDS011;708;51.442;7.016;2024-03-29T13:42:20;4.87;;;4.53;;
1428;SDS011;708;51.442;7.016;2024-03-29T13:44:49;4.27;;;4.07;;
1428;SDS011;708;51.442;7.016;2024-03-29T13:47:16;4.13;;;3.93;;
1428;SDS011;708;51.442;7.016;2024-03-29T13:49:43;4.57;;;4.37;;
1428;SDS011;708;51.442;7.016;2024-03-29T13:52:11;4.10;;;3.90;;
1428;SDS011;708;51.442;7.016;2024-03-29T13:54:41;4.10;;;3.90;;
1428;SDS011;708;51.442;7.016;2024-03-29T13:57:09;5.00;;;4.80;;
1428;SDS011;708;51.442;7.016;2024-03-29T13:59:37;4.37;;;4.17;;
1428;SDS011;708;51.442;7.016;2024-03-29T14:02:04;3.88;;;3.67;;
1428;SDS011;708;51.442;7.016;2024-03-29T14:04:31;4.40;;;4.20;;
1428;SDS011;708;51.442;7.016;2024-03-29T14:06:58;4.50;;;4.30;;
1428;SDS011;708;51.442;7.016;2024-03-29T14:09:26;4.60;;;4.40;;
1428;SDS011;708;51.442;7.016;2024-03-29T14:11:53;4.30;;;4.10;;
1428;SDS011;708;51.442;7.016;2024-03-29T14:14:21;4.75;;;4.55;;
1428;SDS011;708;51.442;7.016;2024-03-29T14:16:50;4.28;;;4.07;;
1428;SDS011;708;51.442;7.016;2024-03-29T14:19:16;4.55;;;4.35;;
1428;SDS011;708;51.442;7.016;2024-03-29T14:21:43;6.45;;;6.15;;
1428;SDS011;708;51.442;7.016;2024-03-29T14:24:10;5.15;;;4.95;;
1428;SDS011;708;51.442;7.016;2024-03-29T14:26:37;5.32;;;5.13;;
1428;SDS011;708;51.442;7.016;2024-03-29T14:29:03;5.28;;;5.07;;
1428;SDS011;708;51.442;7.016;2024-03-29T14:31:31;5.40;;;5.20;;
1428;SDS011;708;51.442;7.016;2024-03-29T14:34:02;4.32;;;4.13;;
1428;SDS011;708;51.442;7.016;2024-03-29T14:36:33;3.65;;;3.45;;
1428;SDS011;708;51.442;7.016;2024-03-29T14:38:59;3.75;;;3.55;;
1428;SDS011;708;51.442;7.016;2024-03-29T14:41:26;4.00;;;3.80;;
1428;SDS011;708;51.442;7.016;2024-03-29T14:43:54;3.55;;;3.35;;
1428;SDS011;708;51.442;7.016;2024-03-29T14:46:22;3.70;;;3.50;;
1428;SDS011;708;51.442;7.016;2024-03-29T14:48:48;3.50;;;3.30;;
1428;SDS011;708;51.442;7.016;2024-03-29T14:51:17;3.30;;;3.10;;
1428;SDS011;708;51.442;7.016;2024-03-29T14:53:44;4.22;;;4.03;;
1428;SDS011;708;51.442;7.016;2024-03-29T14:56:14;4.35;;;4.15;;
1428;SDS011;708;51.442;7.016;2024-03-29T14:58:41;4.50;;;4.30;;
1428;SDS011;708;51.442;7.016;2024-03-29T15:01:08;4.38;;;4.18;;
1428;SDS011;708;51.442;7.016;2024-03-29T15:03:34;4.80;;;4.60;;
1428;SDS011;708;51.442;7.016;2024-03-29T15:06:01;4.70;;;4.50;;
1428;SDS011;708;51.442;7.016;2024-03-29T15:08:29;4.10;;;3.90;;
1428;SDS011;708;51.442;7.016;2024-03-29T15:10:56;4.00;;;3.80;;
1428;SDS011;708;51.442;7.016;2024-03-29T15:13:23;4.10;;;3.90;;
1428;SDS011;708;51.442;7.016;2024-03-29T15:15:53;4.10;;;3.90;;
1428;SDS011;708;51.442;7.016;2024-03-29T15:18:21;4.40;;;4.20;;
1428;SDS011;708;51.442;7.016;2024-03-29T15:20:55;4.20;;;4.00;;
1428;SDS011;708;51.442;7.016;2024-03-29T15:23:21;4.60;;;4.40;;
1428;SDS011;708;51.442;7.016;2024-03-29T15:25:51;7.05;;;6.55;;
1428;SDS011;708;51.442;7.016;2024-03-29T15:28:18;5.40;;;5.20;;
1428;SDS011;708;51.442;7.016;2024-03-29T15:31:09;5.28;;;5.07;;
1428;SDS011;708;51.442;7.016;2024-03-29T15:33:37;4.75;;;4.55;;